createdAt,value
2022-08-07T00:00:26.720Z,95382.45
2022-08-07T00:03:06.814Z,95385.40
2022-08-07T00:05:37.792Z,95383.39
2022-08-07T00:08:07.895Z,95386.20
2022-08-07T00:10:48.377Z,95380.34
2022-08-07T00:13:26.797Z,95381.21
2022-08-07T00:15:55.692Z,95381.23
2022-08-07T00:18:29.147Z,95385.05
2022-08-07T00:21:01.949Z,95384.36
2022-08-07T00:23:33.446Z,95388.44
2022-08-07T00:26:12.801Z,95393.97
2022-08-07T00:28:45.912Z,95394.28
2022-08-07T00:31:37.330Z,95391.38
2022-08-07T00:34:08.945Z,95392.94
2022-08-07T00:36:43.258Z,95398.66
2022-08-07T00:39:16.529Z,95401.69
2022-08-07T00:42:02.211Z,95398.92
2022-08-07T00:44:34.763Z,95401.55
2022-08-07T00:47:06.558Z,95399.81
2022-08-07T00:50:19.005Z,95401.34
2022-08-07T00:52:33.331Z,95404.38
2022-08-07T00:55:10.547Z,95401.22
2022-08-07T00:57:55.295Z,95403.48
2022-08-07T01:00:25.435Z,95400.59
2022-08-07T01:02:54.657Z,95400.86
2022-08-07T01:05:24.634Z,95403.08
2022-08-07T01:07:53.055Z,95399.39
2022-08-07T01:10:23.772Z,95401.25
2022-08-07T01:12:54.586Z,95404.67
2022-08-07T01:16:01.258Z,95404.99
2022-08-07T01:18:17.054Z,95405.27
2022-08-07T01:21:10.285Z,95403.83
2022-08-07T01:23:54.083Z,95402.92
2022-08-07T01:26:26.203Z,95400.37
2022-08-07T01:28:55.686Z,95403.91
2022-08-07T01:31:42.506Z,95400.62
2022-08-07T01:34:14.488Z,95401.89
2022-08-07T01:36:52.917Z,95409.08
2022-08-07T01:39:41.399Z,95407.25
2022-08-07T01:42:57.432Z,95414.06
2022-08-07T01:45:36.446Z,95411.60
2022-08-07T01:48:20.253Z,95414.54
2022-08-07T01:52:01.071Z,95415.67
2022-08-07T01:54:11.802Z,95412.77
2022-08-07T01:56:53.144Z,95405.12
2022-08-07T01:59:23.433Z,95406.95
2022-08-07T02:02:06.178Z,95406.44
2022-08-07T02:04:52.628Z,95408.25
2022-08-07T02:07:36.135Z,95407.22
2022-08-07T02:10:25.220Z,95405.46
2022-08-07T02:12:59.668Z,95408.83
2022-08-07T02:15:36.161Z,95409.50
2022-08-07T02:18:06.965Z,95407.30
2022-08-07T02:20:37.439Z,95411.02
2022-08-07T02:23:07.792Z,95412.18
2022-08-07T02:26:31.730Z,95413.60
2022-08-07T02:28:31.500Z,95413.09
2022-08-07T02:31:10.254Z,95413.23
2022-08-07T02:34:03.931Z,95416.41
2022-08-07T02:36:42.663Z,95413.73
2022-08-07T02:39:42.991Z,95418.38
2022-08-07T02:42:10.213Z,95419.70
2022-08-07T02:44:48.963Z,95423.34
2022-08-07T02:47:23.463Z,95422.19
2022-08-07T02:49:57.877Z,95416.32
2022-08-07T02:52:48.691Z,95421.08
2022-08-07T02:55:28.383Z,95417.85
2022-08-07T02:58:21.604Z,95421.71
2022-08-07T03:00:55.142Z,95421.09
2022-08-07T03:03:29.613Z,95421.09
2022-08-07T03:06:26.279Z,95426.52
2022-08-07T03:09:05.063Z,95426.92
2022-08-07T03:11:38.665Z,95424.66
2022-08-07T03:14:09.305Z,95424.48
2022-08-07T03:16:40.610Z,95419.25
2022-08-07T03:19:11.002Z,95418.53
2022-08-07T03:21:50.346Z,95418.05
2022-08-07T03:24:27.432Z,95422.54
2022-08-07T03:27:02.104Z,95425.80
2022-08-07T03:29:46.264Z,95424.23
2022-08-07T03:32:26.073Z,95423.49
2022-08-07T03:35:17.711Z,95426.56
2022-08-07T03:37:55.230Z,95427.54
2022-08-07T03:40:36.153Z,95427.45
2022-08-07T03:43:09.991Z,95429.95
2022-08-07T03:45:47.927Z,95428.11
2022-08-07T03:48:19.211Z,95428.69
2022-08-07T03:50:56.200Z,95430.25
2022-08-07T03:54:33.119Z,95433.84
2022-08-07T03:56:33.328Z,95436.30
2022-08-07T03:59:09.214Z,95435.41
2022-08-07T04:01:46.068Z,95437.96
2022-08-07T04:04:17.930Z,95439.66
2022-08-07T04:06:50.964Z,95442.48
2022-08-07T04:09:23.105Z,95439.51
2022-08-07T04:12:27.890Z,95438.20
2022-08-07T04:14:47.719Z,95443.23
2022-08-07T04:17:20.790Z,95443.48
2022-08-07T04:19:54.392Z,95445.82
2022-08-07T04:22:27.411Z,95446.29
2022-08-07T04:25:00.959Z,95445.02
2022-08-07T04:27:38.135Z,95452.48
2022-08-07T04:30:21.650Z,95448.45
2022-08-07T04:33:15.400Z,95454.90
2022-08-07T04:35:50.569Z,95451.48
2022-08-07T04:38:21.016Z,95454.77
2022-08-07T04:40:52.231Z,95453.79
2022-08-07T04:44:09.706Z,95455.40
2022-08-07T04:47:09.116Z,95454.95
2022-08-07T04:50:03.875Z,95456.34
2022-08-07T04:52:52.466Z,95458.05
2022-08-07T04:58:10.969Z,95462.89
2022-08-07T05:00:09.434Z,95461.09
2022-08-07T05:02:39.750Z,95462.41
2022-08-07T05:05:53.057Z,95460.73
2022-08-07T05:08:59.960Z,95461.94
2022-08-07T05:11:58.667Z,95462.82
2022-08-07T05:15:23.109Z,95461.50
2022-08-07T05:18:09.051Z,95465.88
2022-08-07T05:20:54.240Z,95469.74
2022-08-07T05:23:30.086Z,95468.77
2022-08-07T05:26:13.050Z,95467.55
2022-08-07T05:28:50.285Z,95473.05
2022-08-07T05:31:35.353Z,95474.98
2022-08-07T05:34:12.044Z,95479.26
2022-08-07T05:36:44.891Z,95477.83
2022-08-07T05:40:13.746Z,95477.02
2022-08-07T05:42:33.613Z,95481.89
2022-08-07T05:45:26.343Z,95481.94
2022-08-07T05:48:01.132Z,95482.23
2022-08-07T05:50:34.415Z,95483.42
2022-08-07T05:53:04.150Z,95486.95
2022-08-07T05:56:02.474Z,95486.38
2022-08-07T05:58:36.240Z,95492.13
2022-08-07T06:01:10.492Z,95488.30
2022-08-07T06:03:53.573Z,95486.88
2022-08-07T06:06:29.915Z,95484.96
2022-08-07T06:09:04.431Z,95485.08
2022-08-07T06:11:34.845Z,95487.38
2022-08-07T06:14:13.138Z,95486.66
2022-08-07T06:16:56.412Z,95487.23
2022-08-07T06:19:58.314Z,95484.42
2022-08-07T06:22:27.135Z,95488.35
2022-08-07T06:25:14.627Z,95489.17
2022-08-07T06:28:00.498Z,95488.06
2022-08-07T06:30:35.770Z,95489.16
2022-08-07T06:33:16.296Z,95492.20
2022-08-07T06:36:13.067Z,95496.20
2022-08-07T06:38:39.495Z,95499.36
2022-08-07T06:42:03.046Z,95496.31
2022-08-07T06:44:22.649Z,95493.52
2022-08-07T06:46:53.366Z,95489.63
2022-08-07T06:49:28.623Z,95484.34
2022-08-07T06:52:07.322Z,95485.70
2022-08-07T06:55:33.376Z,95483.52
2022-08-07T06:57:48.341Z,95483.65
2022-08-07T07:00:20.774Z,95486.25
2022-08-07T07:02:54.403Z,95486.46
2022-08-07T07:06:03.226Z,95488.89
2022-08-07T07:08:18.507Z,95492.50
2022-08-07T07:10:57.164Z,95495.25
2022-08-07T07:13:58.548Z,95490.00
2022-08-07T07:16:33.530Z,95490.17
2022-08-07T07:19:11.525Z,95493.23
2022-08-07T07:22:12.104Z,95493.90
2022-08-07T07:24:56.577Z,95494.71
2022-08-07T07:27:35.571Z,95492.55
2022-08-07T07:30:32.708Z,95495.74
2022-08-07T07:33:08.008Z,95492.73
2022-08-07T07:35:44.095Z,95492.94
2022-08-07T07:38:26.328Z,95487.23
2022-08-07T07:41:02.074Z,95491.05
2022-08-07T07:43:48.075Z,95488.99
2022-08-07T07:46:37.611Z,95488.98
2022-08-07T07:50:36.177Z,95494.17
2022-08-07T07:52:07.353Z,95494.92
2022-08-07T07:54:38.313Z,95494.63
2022-08-07T07:57:11.543Z,95492.91
2022-08-07T07:59:52.091Z,95490.11
2022-08-07T08:02:35.506Z,95491.42
2022-08-07T08:05:14.136Z,95480.63
2022-08-07T08:07:59.717Z,95478.73
2022-08-07T08:10:38.026Z,95475.75
2022-08-07T08:13:10.544Z,95470.55
2022-08-07T08:15:59.027Z,95474.37
2022-08-07T08:18:30.277Z,95480.77
2022-08-07T08:21:01.799Z,95475.13
2022-08-07T08:23:51.772Z,95476.43
2022-08-07T08:26:39.901Z,95475.05
2022-08-07T08:29:09.521Z,95475.06
2022-08-07T08:31:58.654Z,95482.36
2022-08-07T08:34:38.339Z,95481.23
2022-08-07T08:38:00.789Z,95486.90
2022-08-07T08:39:59.183Z,95485.66
2022-08-07T08:42:37.275Z,95478.05
2022-08-07T08:45:26.892Z,95478.46
2022-08-07T08:48:28.531Z,95477.96
2022-08-07T08:51:14.305Z,95476.92
2022-08-07T08:54:04.866Z,95481.48
2022-08-07T08:56:39.273Z,95479.92
2022-08-07T08:59:42.196Z,95482.33
2022-08-07T09:02:36.386Z,95483.59
2022-08-07T09:05:38.090Z,95481.40
2022-08-07T09:08:28.531Z,95478.94
2022-08-07T09:11:43.727Z,95468.69
2022-08-07T09:14:58.748Z,95471.41
2022-08-07T09:18:07.153Z,95473.93
2022-08-07T09:21:00.782Z,95471.86
2022-08-07T09:24:31.221Z,95466.52
2022-08-07T09:26:38.558Z,95466.06
2022-08-07T09:30:03.369Z,95461.21
2022-08-07T09:32:50.202Z,95458.67
2022-08-07T09:36:02.989Z,95455.23
2022-08-07T09:38:25.754Z,95454.23
2022-08-07T09:41:15.743Z,95444.48
2022-08-07T09:44:05.854Z,95448.04
2022-08-07T09:47:50.138Z,95445.85
2022-08-07T09:50:33.784Z,95449.55
2022-08-07T09:53:06.010Z,95450.46
2022-08-07T09:56:19.765Z,95439.31
2022-08-07T09:59:21.750Z,95438.44
2022-08-07T10:03:08.553Z,95444.71
2022-08-07T10:06:02.876Z,95435.59
2022-08-07T10:08:35.874Z,95429.83
2022-08-07T10:12:01.695Z,95426.80
2022-08-07T10:14:30.347Z,95421.80
2022-08-07T10:18:01.704Z,95425.29
2022-08-07T10:20:58.059Z,95433.45
2022-08-07T10:24:06.263Z,95425.17
2022-08-07T10:26:53.182Z,95423.88
2022-08-07T10:29:40.468Z,95421.45
2022-08-07T10:32:52.585Z,95422.20
2022-08-07T10:35:55.347Z,95425.13
2022-08-07T10:38:41.181Z,95413.05
2022-08-07T10:41:47.507Z,95410.35
2022-08-07T10:44:50.081Z,95411.06
2022-08-07T10:47:53.588Z,95409.78
2022-08-07T10:50:31.852Z,95400.77
2022-08-07T10:53:25.185Z,95406.38
2022-08-07T10:56:30.936Z,95407.38
2022-08-07T10:59:37.793Z,95398.17
2022-08-07T11:02:33.038Z,95395.98
2022-08-07T11:05:20.016Z,95397.75
2022-08-07T11:08:17.913Z,95391.50
2022-08-07T11:10:59.668Z,95389.77
2022-08-07T11:14:43.772Z,95395.14
2022-08-07T11:16:42.048Z,95393.33
2022-08-07T11:19:14.557Z,95386.25
2022-08-07T11:22:18.949Z,95385.03
2022-08-07T11:25:09.798Z,95382.63
2022-08-07T11:28:09.039Z,95380.73
2022-08-07T11:31:02.066Z,95380.91
2022-08-07T11:33:53.526Z,95380.09
2022-08-07T11:36:35.844Z,95374.17
2022-08-07T11:39:07.293Z,95383.55
2022-08-07T11:42:01.780Z,95377.40
2022-08-07T11:44:52.548Z,95373.71
2022-08-07T11:47:53.585Z,95371.83
2022-08-07T11:50:57.463Z,95369.23
2022-08-07T11:54:00.594Z,95364.08
2022-08-07T11:56:53.107Z,95357.11
2022-08-07T12:00:11.878Z,95361.86
2022-08-07T12:03:00.495Z,95356.41
2022-08-07T12:05:59.454Z,95358.91
2022-08-07T12:08:37.094Z,95356.36
2022-08-07T12:11:21.038Z,95355.25
2022-08-07T12:14:11.417Z,95363.02
2022-08-07T12:16:53.933Z,95360.30
2022-08-07T12:20:04.932Z,95359.48
2022-08-07T12:22:58.618Z,95361.88
2022-08-07T12:26:05.323Z,95355.77
2022-08-07T12:28:54.307Z,95352.50
2022-08-07T12:32:03.956Z,95355.58
2022-08-07T12:34:39.651Z,95353.02
2022-08-07T12:37:16.875Z,95355.88
2022-08-07T12:39:59.147Z,95356.27
2022-08-07T12:42:32.158Z,95358.25
2022-08-07T12:45:15.895Z,95360.19
2022-08-07T12:47:49.417Z,95366.86
2022-08-07T12:50:40.229Z,95371.91
2022-08-07T12:53:18.757Z,95372.60
2022-08-07T12:56:02.606Z,95373.75
2022-08-07T12:58:39.669Z,95371.45
2022-08-07T13:01:58.367Z,95369.10
2022-08-07T13:05:10.348Z,95368.15
2022-08-07T13:08:18.561Z,95369.52
2022-08-07T13:11:01.371Z,95367.60
2022-08-07T13:13:57.319Z,95362.75
2022-08-07T13:16:47.007Z,95365.98
2022-08-07T13:19:50.464Z,95364.50
2022-08-07T13:22:59.903Z,95369.85
2022-08-07T13:25:54.202Z,95369.88
2022-08-07T13:28:37.855Z,95362.21
2022-08-07T13:31:13.198Z,95364.00
2022-08-07T13:34:31.026Z,95361.73
2022-08-07T13:36:51.402Z,95365.98
2022-08-07T13:39:49.440Z,95366.03
2022-08-07T13:42:24.914Z,95363.73
2022-08-07T13:45:20.634Z,95365.77
2022-08-07T13:48:05.335Z,95366.51
2022-08-07T13:51:00.358Z,95371.71
2022-08-07T13:53:59.233Z,95368.20
2022-08-07T13:56:36.367Z,95375.19
2022-08-07T13:59:19.913Z,95377.84
2022-08-07T14:02:03.875Z,95377.48
2022-08-07T14:04:48.879Z,95376.13
2022-08-07T14:07:26.462Z,95387.30
2022-08-07T14:10:16.302Z,95397.10
2022-08-07T14:12:58.724Z,95398.80
2022-08-07T14:15:38.403Z,95398.86
2022-08-07T14:18:29.910Z,95409.13
2022-08-07T14:21:20.976Z,95418.95
2022-08-07T14:24:12.777Z,95419.15
2022-08-07T14:26:56.705Z,95423.43
2022-08-07T14:30:07.854Z,95424.23
2022-08-07T14:32:26.946Z,95423.05
2022-08-07T14:34:56.203Z,95421.16
2022-08-07T14:37:36.294Z,95423.08
2022-08-07T14:40:26.575Z,95415.85
2022-08-07T14:43:57.357Z,95414.85
2022-08-07T14:46:04.682Z,95420.38
2022-08-07T14:48:37.217Z,95421.35
2022-08-07T14:51:15.602Z,95426.16
2022-08-07T14:54:05.555Z,95425.21
2022-08-07T14:56:40.489Z,95427.30
2022-08-07T14:59:13.821Z,95427.04
2022-08-07T15:02:34.022Z,95433.73
2022-08-07T15:05:04.955Z,95438.27
2022-08-07T15:07:51.776Z,95436.45
2022-08-07T15:10:26.113Z,95440.26
2022-08-07T15:13:01.314Z,95441.34
2022-08-07T15:15:56.726Z,95439.86
2022-08-07T15:18:47.622Z,95438.46
2022-08-07T15:25:13.406Z,95443.60
2022-08-07T15:27:19.458Z,95443.36
2022-08-07T15:30:06.526Z,95443.95
2022-08-07T15:42:42.596Z,95448.62
2022-08-07T15:44:15.370Z,95449.58
2022-08-07T15:52:31.462Z,95449.23
2022-08-07T15:55:08.841Z,95451.40
2022-08-07T15:57:49.012Z,95448.58
2022-08-07T16:00:30.987Z,95448.89
2022-08-07T16:03:21.624Z,95449.36
2022-08-07T16:06:02.425Z,95451.73
2022-08-07T16:08:38.647Z,95454.84
2022-08-07T16:11:26.546Z,95454.20
2022-08-07T16:14:45.319Z,95447.18
2022-08-07T16:18:02.420Z,95448.52
2022-08-07T16:20:55.173Z,95445.17
2022-08-07T16:23:53.923Z,95443.79
2022-08-07T16:26:30.528Z,95440.23
2022-08-07T16:30:05.747Z,95442.27
2022-08-07T16:32:35.356Z,95442.19
2022-08-07T16:35:51.487Z,95438.89
2022-08-07T16:38:09.441Z,95435.66
2022-08-07T16:41:13.242Z,95430.34
2022-08-07T16:44:06.281Z,95432.15
2022-08-07T16:47:08.766Z,95431.98
2022-08-07T16:50:20.280Z,95436.52
2022-08-07T16:52:52.645Z,95435.42
2022-08-07T16:55:47.259Z,95438.10
2022-08-07T16:59:02.284Z,95441.94
2022-08-07T17:01:27.588Z,95441.98
2022-08-07T17:04:50.918Z,95445.17
2022-08-07T17:07:51.989Z,95441.88
2022-08-07T17:10:39.696Z,95447.09
2022-08-07T17:13:16.685Z,95446.77
2022-08-07T17:16:05.952Z,95446.50
2022-08-07T17:19:23.989Z,95445.09
2022-08-07T17:22:36.468Z,95447.06
2022-08-07T17:25:47.325Z,95445.09
2022-08-07T17:28:22.326Z,95439.59
2022-08-07T17:31:00.956Z,95442.93
2022-08-07T17:34:34.046Z,95442.83
2022-08-07T17:38:08.858Z,95451.98
2022-08-07T17:40:30.505Z,95459.66
2022-08-07T17:43:18.412Z,95460.19
2022-08-07T17:46:09.022Z,95461.71
2022-08-07T17:48:46.701Z,95460.36
2022-08-07T17:51:49.438Z,95458.84
2022-08-07T17:54:40.052Z,95462.33
2022-08-07T17:57:58.838Z,95461.23
2022-08-07T18:00:34.190Z,95461.90
2022-08-07T18:04:04.413Z,95465.30
2022-08-07T18:06:43.173Z,95465.23
2022-08-07T18:10:06.794Z,95463.95
2022-08-07T18:12:30.189Z,95468.20
2022-08-07T18:15:12.085Z,95469.86
2022-08-07T18:18:47.642Z,95476.46
2022-08-07T18:21:30.655Z,95477.78
2022-08-07T18:24:07.688Z,95483.41
2022-08-07T18:26:40.878Z,95481.17
2022-08-07T18:30:05.424Z,95480.88
2022-08-07T18:32:21.835Z,95484.83
2022-08-07T18:35:15.807Z,95489.77
2022-08-07T18:38:56.136Z,95492.93
2022-08-07T18:41:09.122Z,95494.56
2022-08-07T18:44:09.412Z,95494.80
2022-08-07T18:46:51.442Z,95500.63
2022-08-07T18:50:33.022Z,95498.84
2022-08-07T18:52:37.841Z,95498.87
2022-08-07T18:55:55.940Z,95501.10
2022-08-07T18:58:51.273Z,95508.27
2022-08-07T19:02:32.302Z,95509.73
2022-08-07T19:05:14.855Z,95511.33
2022-08-07T19:08:13.294Z,95515.95
2022-08-07T19:10:51.533Z,95519.80
2022-08-07T19:13:27.853Z,95517.53
2022-08-07T19:17:00.386Z,95523.30
2022-08-07T19:19:31.693Z,95521.85
2022-08-07T19:22:11.199Z,95525.81
2022-08-07T19:24:48.676Z,95525.58
2022-08-07T19:28:56.697Z,95523.33
2022-08-07T19:31:05.189Z,95521.54
2022-08-07T19:33:12.926Z,95521.25
2022-08-07T19:35:51.905Z,95521.73
2022-08-07T19:38:21.777Z,95524.92
2022-08-07T19:40:56.205Z,95529.78
2022-08-07T19:43:49.247Z,95533.39
2022-08-07T19:46:26.316Z,95532.70
2022-08-07T19:49:05.406Z,95531.54
2022-08-07T19:51:50.946Z,95533.26
2022-08-07T19:54:34.191Z,95529.96
2022-08-07T19:58:01.099Z,95528.95
2022-08-07T20:00:12.801Z,95532.69
2022-08-07T20:03:02.961Z,95535.85
2022-08-07T20:05:59.911Z,95533.06
2022-08-07T20:08:27.964Z,95530.58
2022-08-07T20:11:10.137Z,95525.84
2022-08-07T20:13:50.564Z,95528.02
2022-08-07T20:16:36.463Z,95529.77
2022-08-07T20:19:10.535Z,95531.86
2022-08-07T20:21:47.295Z,95534.96
2022-08-07T20:24:24.157Z,95536.38
2022-08-07T20:27:02.765Z,95534.59
2022-08-07T20:29:49.071Z,95539.32
2022-08-07T20:32:38.958Z,95532.34
2022-08-07T20:35:15.856Z,95537.21
2022-08-07T20:37:57.694Z,95532.45
2022-08-07T20:40:37.606Z,95531.39
2022-08-07T20:43:14.647Z,95533.55
2022-08-07T20:46:25.873Z,95529.09
2022-08-07T20:49:54.194Z,95532.11
2022-08-07T20:51:35.907Z,95534.58
2022-08-07T20:54:12.071Z,95540.60
2022-08-07T20:56:45.907Z,95541.11
2022-08-07T21:00:04.162Z,95547.15
2022-08-07T21:02:35.420Z,95550.50
2022-08-07T21:05:16.758Z,95554.02
2022-08-07T21:07:50.065Z,95551.90
2022-08-07T21:10:29.506Z,95554.65
2022-08-07T21:13:05.058Z,95553.02
2022-08-07T21:15:58.239Z,95553.94
2022-08-07T21:18:33.457Z,95553.94
2022-08-07T21:21:04.253Z,95552.73
2022-08-07T21:24:01.108Z,95550.42
2022-08-07T21:26:42.839Z,95551.90
2022-08-07T21:29:30.628Z,95552.10
2022-08-07T21:32:47.199Z,95548.84
2022-08-07T21:35:11.213Z,95545.67
2022-08-07T21:37:57.952Z,95547.83
2022-08-07T21:40:38.396Z,95548.88
2022-08-07T21:43:55.452Z,95547.55
2022-08-07T21:46:43.751Z,95548.18
2022-08-07T21:49:21.289Z,95547.48
2022-08-07T21:52:11.828Z,95546.17
2022-08-07T21:54:56.761Z,95545.23
2022-08-07T21:57:44.776Z,95543.70
2022-08-07T22:00:25.587Z,95542.15
2022-08-07T22:03:31.063Z,95544.31
2022-08-07T22:06:30.106Z,95549.15
2022-08-07T22:09:10.994Z,95551.04
2022-08-07T22:12:05.223Z,95547.48
2022-08-07T22:14:44.078Z,95545.27
2022-08-07T22:17:53.879Z,95545.02
2022-08-07T22:20:30.551Z,95544.89
2022-08-07T22:23:14.914Z,95549.91
2022-08-07T22:26:02.140Z,95550.98
2022-08-07T22:28:40.735Z,95551.71
2022-08-07T22:31:59.106Z,95545.29
2022-08-07T22:34:15.574Z,95546.96
2022-08-07T22:38:02.976Z,95546.89
2022-08-07T22:40:38.552Z,95546.73
2022-08-07T22:43:10.909Z,95543.86
2022-08-07T22:47:02.696Z,95541.11
2022-08-07T22:49:37.792Z,95542.34
2022-08-07T22:53:03.198Z,95540.86
2022-08-07T22:55:43.613Z,95543.11
2022-08-07T22:58:28.322Z,95545.69
2022-08-07T23:01:06.300Z,95547.56
2022-08-07T23:04:08.632Z,95549.54
2022-08-07T23:06:42.901Z,95549.48
2022-08-07T23:10:04.610Z,95547.37
2022-08-07T23:12:34.658Z,95543.13
2022-08-07T23:16:04.547Z,95540.29
2022-08-07T23:18:32.560Z,95542.23
2022-08-07T23:21:03.794Z,95543.09
2022-08-07T23:24:11.687Z,95536.09
2022-08-07T23:27:07.864Z,95536.46
2022-08-07T23:30:37.643Z,95536.52
2022-08-07T23:34:35.253Z,95539.68
2022-08-07T23:36:02.814Z,95542.38
2022-08-07T23:39:02.046Z,95544.59
2022-08-07T23:42:04.140Z,95548.39
2022-08-07T23:44:55.212Z,95548.00
2022-08-07T23:48:01.970Z,95547.08
2022-08-07T23:50:39.439Z,95541.11
2022-08-07T23:53:51.361Z,95548.88
2022-08-07T23:56:38.883Z,95545.40
